sensor_id;sensor_type;location;lat;lon;timestamp;pressure;altitude;pressure_sealevel;temperature;humidity
75549;BME280;64133;56.002;37.208;2022-12-29T00:01:53;98792.98;;;-1.53;87.94
75549;BME280;64133;56.002;37.208;2022-12-29T00:06:58;98794.74;;;-1.74;87.30
75549;BME280;64133;56.002;37.208;2022-12-29T00:12:03;98794.05;;;-1.99;87.30
75549;BME280;64133;56.002;37.208;2022-12-29T00:17:07;98792.70;;;-2.20;87.67
75549;BME280;64133;56.002;37.208;2022-12-29T00:22:12;98807.64;;;-2.06;88.21
75549;BME280;64133;56.002;37.208;2022-12-29T00:27:34;98815.12;;;-1.78;87.69
75549;BME280;64133;56.002;37.208;2022-12-29T00:32:57;98822.88;;;-1.68;87.42
75549;BME280;64133;56.002;37.208;2022-12-29T00:38:19;98817.45;;;-1.72;87.04
75549;BME280;64133;56.002;37.208;2022-12-29T00:43:41;98819.31;;;-1.75;87.07
75549;BME280;64133;56.002;37.208;2022-12-29T00:49:03;98821.36;;;-1.84;87.23
75549;BME280;64133;56.002;37.208;2022-12-29T00:54:25;98826.52;;;-1.84;87.33
75549;BME280;64133;56.002;37.208;2022-12-29T00:59:30;98834.00;;;-1.88;87.28
75549;BME280;64133;56.002;37.208;2022-12-29T01:04:35;98833.41;;;-1.94;87.27
75549;BME280;64133;56.002;37.208;2022-12-29T01:09:40;98829.44;;;-1.91;87.51
75549;BME280;64133;56.002;37.208;2022-12-29T01:15:02;98832.58;;;-1.95;87.46
75549;BME280;64133;56.002;37.208;2022-12-29T01:20:08;98830.11;;;-1.98;87.46
75549;BME280;64133;56.002;37.208;2022-12-29T01:25:13;98831.75;;;-2.17;87.42
75549;BME280;64133;56.002;37.208;2022-12-29T01:30:18;98831.45;;;-2.43;87.60
75549;BME280;64133;56.002;37.208;2022-12-29T01:35:22;98837.38;;;-2.53;88.00
75549;BME280;64133;56.002;37.208;2022-12-29T01:40:27;98838.56;;;-2.38;88.00
75549;BME280;64133;56.002;37.208;2022-12-29T01:45:32;98838.01;;;-2.46;88.04
75549;BME280;64133;56.002;37.208;2022-12-29T01:50:37;98832.44;;;-2.36;87.82
75549;BME280;64133;56.002;37.208;2022-12-29T01:55:42;98842.70;;;-2.34;87.55
75549;BME280;64133;56.002;37.208;2022-12-29T02:00:46;98842.57;;;-2.31;87.28
75549;BME280;64133;56.002;37.208;2022-12-29T02:05:51;98856.20;;;-2.28;87.39
75549;BME280;64133;56.002;37.208;2022-12-29T02:10:56;98862.05;;;-2.46;86.79
75549;BME280;64133;56.002;37.208;2022-12-29T02:16:02;98871.74;;;-2.41;86.66
75549;BME280;64133;56.002;37.208;2022-12-29T02:32:26;98871.46;;;-2.45;86.79
75549;BME280;64133;56.002;37.208;2022-12-29T02:37:32;98876.20;;;-2.56;86.62
75549;BME280;64133;56.002;37.208;2022-12-29T02:42:36;98875.53;;;-2.61;86.58
75549;BME280;64133;56.002;37.208;2022-12-29T02:47:41;98866.75;;;-2.57;86.57
75549;BME280;64133;56.002;37.208;2022-12-29T02:52:46;98871.80;;;-2.66;86.37
75549;BME280;64133;56.002;37.208;2022-12-29T02:58:02;98871.07;;;-2.58;86.65
75549;BME280;64133;56.002;37.208;2022-12-29T03:03:16;98873.05;;;-2.64;86.80
75549;BME280;64133;56.002;37.208;2022-12-29T03:08:22;98881.55;;;-2.62;86.82
75549;BME280;64133;56.002;37.208;2022-12-29T03:13:26;98871.30;;;-2.75;86.45
75549;BME280;64133;56.002;37.208;2022-12-29T03:18:49;98882.44;;;-2.75;86.61
75549;BME280;64133;56.002;37.208;2022-12-29T03:23:52;98891.08;;;-2.76;86.66
75549;BME280;64133;56.002;37.208;2022-12-29T03:28:57;98891.69;;;-2.81;86.82
75549;BME280;64133;56.002;37.208;2022-12-29T03:34:02;98900.09;;;-2.76;86.94
75549;BME280;64133;56.002;37.208;2022-12-29T03:39:08;98899.88;;;-2.82;86.96
75549;BME280;64133;56.002;37.208;2022-12-29T03:44:11;98912.25;;;-2.80;86.73
75549;BME280;64133;56.002;37.208;2022-12-29T03:49:16;98913.21;;;-2.82;86.84
75549;BME280;64133;56.002;37.208;2022-12-29T03:54:21;98915.27;;;-2.80;86.74
75549;BME280;64133;56.002;37.208;2022-12-29T03:59:25;98918.56;;;-2.88;86.98
75549;BME280;64133;56.002;37.208;2022-12-29T04:04:30;98925.81;;;-2.86;86.73
75549;BME280;64133;56.002;37.208;2022-12-29T04:09:35;98928.32;;;-2.85;86.79
75549;BME280;64133;56.002;37.208;2022-12-29T04:14:39;98930.61;;;-2.89;86.71
75549;BME280;64133;56.002;37.208;2022-12-29T04:19:44;98927.58;;;-2.88;86.86
75549;BME280;64133;56.002;37.208;2022-12-29T04:24:49;98926.36;;;-2.90;86.69
75549;BME280;64133;56.002;37.208;2022-12-29T04:29:53;98929.86;;;-2.92;86.76
75549;BME280;64133;56.002;37.208;2022-12-29T04:34:58;98925.64;;;-3.07;86.53
75549;BME280;64133;56.002;37.208;2022-12-29T04:40:03;98935.41;;;-3.16;86.53
75549;BME280;64133;56.002;37.208;2022-12-29T04:45:09;98936.34;;;-3.19;86.56
75549;BME280;64133;56.002;37.208;2022-12-29T04:50:14;98939.14;;;-3.25;86.57
75549;BME280;64133;56.002;37.208;2022-12-29T04:55:19;98935.13;;;-3.34;86.58
75549;BME280;64133;56.002;37.208;2022-12-29T05:00:23;98953.36;;;-3.26;86.42
75549;BME280;64133;56.002;37.208;2022-12-29T05:05:28;98942.16;;;-3.25;86.37
75549;BME280;64133;56.002;37.208;2022-12-29T05:10:33;98946.20;;;-3.32;86.20
75549;BME280;64133;56.002;37.208;2022-12-29T05:15:37;98955.22;;;-3.32;86.61
75549;BME280;64133;56.002;37.208;2022-12-29T05:20:42;98965.13;;;-3.19;86.43
75549;BME280;64133;56.002;37.208;2022-12-29T05:25:47;98976.93;;;-3.25;86.02
75549;BME280;64133;56.002;37.208;2022-12-29T05:30:52;98975.78;;;-3.17;86.13
75549;BME280;64133;56.002;37.208;2022-12-29T05:35:56;98979.50;;;-3.25;86.04
75549;BME280;64133;56.002;37.208;2022-12-29T05:41:01;98977.55;;;-3.32;86.27
75549;BME280;64133;56.002;37.208;2022-12-29T05:46:06;98979.52;;;-3.40;86.09
75549;BME280;64133;56.002;37.208;2022-12-29T05:56:52;98980.25;;;-3.63;86.27
75549;BME280;64133;56.002;37.208;2022-12-29T06:01:57;98982.94;;;-3.81;86.33
75549;BME280;64133;56.002;37.208;2022-12-29T06:07:02;98990.09;;;-3.91;86.81
75549;BME280;64133;56.002;37.208;2022-12-29T06:12:07;98988.52;;;-3.96;86.97
75549;BME280;64133;56.002;37.208;2022-12-29T06:17:12;98998.28;;;-3.93;86.97
75549;BME280;64133;56.002;37.208;2022-12-29T06:22:17;98998.62;;;-3.75;86.77
75549;BME280;64133;56.002;37.208;2022-12-29T06:27:22;98997.14;;;-3.83;86.48
75549;BME280;64133;56.002;37.208;2022-12-29T06:32:27;99002.07;;;-3.62;86.44
75549;BME280;64133;56.002;37.208;2022-12-29T06:37:32;99000.95;;;-3.81;86.34
75549;BME280;64133;56.002;37.208;2022-12-29T06:42:37;98996.39;;;-3.58;86.10
75549;BME280;64133;56.002;37.208;2022-12-29T06:47:42;98995.23;;;-3.48;85.93
75549;BME280;64133;56.002;37.208;2022-12-29T06:52:47;98996.55;;;-3.49;85.58
75549;BME280;64133;56.002;37.208;2022-12-29T06:57:51;98988.84;;;-3.23;84.75
75549;BME280;64133;56.002;37.208;2022-12-29T07:02:57;98998.33;;;-3.65;85.23
75549;BME280;64133;56.002;37.208;2022-12-29T07:08:02;99006.83;;;-3.63;85.63
75549;BME280;64133;56.002;37.208;2022-12-29T07:13:07;99000.11;;;-3.54;85.93
75549;BME280;64133;56.002;37.208;2022-12-29T07:18:12;99007.01;;;-3.41;85.33
75549;BME280;64133;56.002;37.208;2022-12-29T07:23:17;99016.98;;;-3.43;85.36
75549;BME280;64133;56.002;37.208;2022-12-29T07:28:22;99017.27;;;-3.52;85.13
75549;BME280;64133;56.002;37.208;2022-12-29T07:33:29;99008.80;;;-3.43;85.13
75549;BME280;64133;56.002;37.208;2022-12-29T07:38:33;99011.30;;;-3.26;84.26
75549;BME280;64133;56.002;37.208;2022-12-29T07:43:38;99016.95;;;-3.57;84.56
75549;BME280;64133;56.002;37.208;2022-12-29T07:48:43;99018.96;;;-3.38;84.92
75549;BME280;64133;56.002;37.208;2022-12-29T07:53:47;99022.27;;;-3.48;84.66
75549;BME280;64133;56.002;37.208;2022-12-29T07:58:52;99033.59;;;-3.25;84.66
75549;BME280;64133;56.002;37.208;2022-12-29T08:03:57;99030.09;;;-3.38;84.59
75549;BME280;64133;56.002;37.208;2022-12-29T08:09:01;99042.30;;;-3.30;84.63
75549;BME280;64133;56.002;37.208;2022-12-29T08:14:05;99034.97;;;-3.15;84.37
75549;BME280;64133;56.002;37.208;2022-12-29T08:19:11;99042.81;;;-3.46;84.36
75549;BME280;64133;56.002;37.208;2022-12-29T08:24:15;99043.34;;;-3.35;84.55
75549;BME280;64133;56.002;37.208;2022-12-29T08:29:20;99040.52;;;-3.14;84.23
75549;BME280;64133;56.002;37.208;2022-12-29T08:34:25;99039.34;;;-3.17;83.55
75549;BME280;64133;56.002;37.208;2022-12-29T08:39:29;99042.59;;;-3.25;84.21
75549;BME280;64133;56.002;37.208;2022-12-29T08:44:34;99041.36;;;-3.00;83.76
75549;BME280;64133;56.002;37.208;2022-12-29T08:49:39;99042.41;;;-2.93;83.83
75549;BME280;64133;56.002;37.208;2022-12-29T08:54:43;99049.50;;;-2.99;82.94
75549;BME280;64133;56.002;37.208;2022-12-29T08:59:48;99047.31;;;-3.12;83.34
75549;BME280;64133;56.002;37.208;2022-12-29T09:04:53;99048.77;;;-3.18;82.87
75549;BME280;64133;56.002;37.208;2022-12-29T09:09:57;99060.19;;;-3.40;83.25
75549;BME280;64133;56.002;37.208;2022-12-29T09:15:03;99052.04;;;-3.39;83.52
75549;BME280;64133;56.002;37.208;2022-12-29T09:20:09;99056.32;;;-3.40;83.65
75549;BME280;64133;56.002;37.208;2022-12-29T09:25:13;99061.58;;;-3.58;83.58
75549;BME280;64133;56.002;37.208;2022-12-29T09:30:19;99058.50;;;-3.69;84.26
75549;BME280;64133;56.002;37.208;2022-12-29T09:35:26;99057.52;;;-3.65;84.12
75549;BME280;64133;56.002;37.208;2022-12-29T09:40:32;99064.96;;;-3.85;84.40
75549;BME280;64133;56.002;37.208;2022-12-29T09:45:38;99054.59;;;-3.52;84.59
75549;BME280;64133;56.002;37.208;2022-12-29T09:50:41;99058.42;;;-3.38;83.83
75549;BME280;64133;56.002;37.208;2022-12-29T09:55:46;99056.94;;;-3.60;84.10
75549;BME280;64133;56.002;37.208;2022-12-29T10:00:52;99053.21;;;-3.64;83.97
75549;BME280;64133;56.002;37.208;2022-12-29T10:05:56;99054.44;;;-3.63;83.83
75549;BME280;64133;56.002;37.208;2022-12-29T10:11:01;99050.89;;;-3.44;83.86
75549;BME280;64133;56.002;37.208;2022-12-29T10:16:07;99056.21;;;-3.50;83.65
75549;BME280;64133;56.002;37.208;2022-12-29T10:21:13;99057.44;;;-3.34;83.62
75549;BME280;64133;56.002;37.208;2022-12-29T10:31:34;99063.51;;;-3.21;83.86
75549;BME280;64133;56.002;37.208;2022-12-29T10:36:39;99072.47;;;-3.20;83.57
75549;BME280;64133;56.002;37.208;2022-12-29T10:41:45;99049.35;;;-3.08;83.65
75549;BME280;64133;56.002;37.208;2022-12-29T10:46:51;99045.19;;;-2.99;82.93
75549;BME280;64133;56.002;37.208;2022-12-29T10:51:56;99043.23;;;-3.06;82.95
75549;BME280;64133;56.002;37.208;2022-12-29T10:57:01;99034.91;;;-3.00;82.98
75549;BME280;64133;56.002;37.208;2022-12-29T11:02:15;99030.42;;;-3.07;83.04
75549;BME280;64133;56.002;37.208;2022-12-29T11:07:19;99035.66;;;-3.10;82.92
75549;BME280;64133;56.002;37.208;2022-12-29T11:12:25;99037.75;;;-3.21;83.13
75549;BME280;64133;56.002;37.208;2022-12-29T11:17:29;99036.47;;;-3.21;83.17
75549;BME280;64133;56.002;37.208;2022-12-29T11:22:34;99034.28;;;-3.20;83.32
75549;BME280;64133;56.002;37.208;2022-12-29T11:27:38;99036.41;;;-3.20;83.47
75549;BME280;64133;56.002;37.208;2022-12-29T11:32:49;99034.61;;;-3.18;83.57
75549;BME280;64133;56.002;37.208;2022-12-29T11:37:53;99030.95;;;-3.24;83.58
75549;BME280;64133;56.002;37.208;2022-12-29T11:42:56;99032.03;;;-3.18;83.48
75549;BME280;64133;56.002;37.208;2022-12-29T11:48:01;99024.87;;;-3.21;83.84
75549;BME280;64133;56.002;37.208;2022-12-29T11:53:07;99034.13;;;-3.29;84.32
75549;BME280;64133;56.002;37.208;2022-12-29T11:58:13;99039.64;;;-3.13;83.82
75549;BME280;64133;56.002;37.208;2022-12-29T12:03:18;99049.49;;;-3.41;83.90
75549;BME280;64133;56.002;37.208;2022-12-29T12:08:23;99049.72;;;-3.34;84.65
75549;BME280;64133;56.002;37.208;2022-12-29T12:13:29;99054.78;;;-3.31;84.45
75549;BME280;64133;56.002;37.208;2022-12-29T12:18:40;99045.32;;;-3.30;84.55
75549;BME280;64133;56.002;37.208;2022-12-29T12:23:52;99050.95;;;-3.32;84.55
75549;BME280;64133;56.002;37.208;2022-12-29T12:28:55;99046.48;;;-3.27;84.79
75549;BME280;64133;56.002;37.208;2022-12-29T12:34:00;99048.85;;;-3.47;84.81
75549;BME280;64133;56.002;37.208;2022-12-29T12:39:06;99054.95;;;-3.37;85.39
75549;BME280;64133;56.002;37.208;2022-12-29T12:44:15;99055.13;;;-3.56;85.27
75549;BME280;64133;56.002;37.208;2022-12-29T12:49:20;99056.74;;;-3.54;85.84
75549;BME280;64133;56.002;37.208;2022-12-29T12:54:35;99048.26;;;-3.57;86.31
75549;BME280;64133;56.002;37.208;2022-12-29T12:59:46;99052.04;;;-3.39;86.33
75549;BME280;64133;56.002;37.208;2022-12-29T13:05:03;99054.13;;;-3.67;86.33
75549;BME280;64133;56.002;37.208;2022-12-29T13:10:34;99055.39;;;-3.65;86.75
75549;BME280;64133;56.002;37.208;2022-12-29T13:15:41;99055.08;;;-3.69;87.14
75549;BME280;64133;56.002;37.208;2022-12-29T13:20:46;99056.45;;;-3.72;87.26
75549;BME280;64133;56.002;37.208;2022-12-29T13:25:51;99056.50;;;-3.74;87.11
75549;BME280;64133;56.002;37.208;2022-12-29T13:30:56;99075.96;;;-3.80;87.63
75549;BME280;64133;56.002;37.208;2022-12-29T13:36:02;99064.11;;;-3.71;87.86
75549;BME280;64133;56.002;37.208;2022-12-29T13:41:06;99057.23;;;-3.70;87.59
75549;BME280;64133;56.002;37.208;2022-12-29T13:46:12;99056.53;;;-3.75;88.10
75549;BME280;64133;56.002;37.208;2022-12-29T13:51:16;99063.47;;;-3.77;87.89
75549;BME280;64133;56.002;37.208;2022-12-29T13:56:20;99058.20;;;-3.74;87.88
75549;BME280;64133;56.002;37.208;2022-12-29T14:01:24;99051.91;;;-3.79;88.25
75549;BME280;64133;56.002;37.208;2022-12-29T14:06:27;99051.91;;;-3.79;88.19
75549;BME280;64133;56.002;37.208;2022-12-29T14:11:32;99049.20;;;-3.74;88.55
75549;BME280;64133;56.002;37.208;2022-12-29T14:16:37;99047.23;;;-3.65;88.47
75549;BME280;64133;56.002;37.208;2022-12-29T14:21:40;99052.82;;;-3.65;88.70
75549;BME280;64133;56.002;37.208;2022-12-29T14:26:45;99052.62;;;-3.59;88.94
75549;BME280;64133;56.002;37.208;2022-12-29T14:37:14;99051.26;;;-3.56;88.80
75549;BME280;64133;56.002;37.208;2022-12-29T14:42:13;99057.27;;;-3.57;88.81
75549;BME280;64133;56.002;37.208;2022-12-29T14:47:20;99053.83;;;-3.56;88.82
75549;BME280;64133;56.002;37.208;2022-12-29T14:52:25;99050.50;;;-3.60;88.68
75549;BME280;64133;56.002;37.208;2022-12-29T14:57:37;99059.25;;;-3.65;88.62
75549;BME280;64133;56.002;37.208;2022-12-29T15:02:43;99056.56;;;-3.62;88.87
75549;BME280;64133;56.002;37.208;2022-12-29T15:07:46;99057.41;;;-3.62;88.60
75549;BME280;64133;56.002;37.208;2022-12-29T15:12:51;99061.58;;;-3.58;88.53
75549;BME280;64133;56.002;37.208;2022-12-29T15:17:55;99052.09;;;-3.56;88.38
75549;BME280;64133;56.002;37.208;2022-12-29T15:23:00;99060.07;;;-3.50;88.09
75549;BME280;64133;56.002;37.208;2022-12-29T15:28:03;99057.66;;;-3.41;88.33
75549;BME280;64133;56.002;37.208;2022-12-29T15:33:17;99056.52;;;-3.46;88.04
75549;BME280;64133;56.002;37.208;2022-12-29T15:38:23;99049.69;;;-3.47;88.15
75549;BME280;64133;56.002;37.208;2022-12-29T15:43:39;99037.41;;;-3.52;87.90
75549;BME280;64133;56.002;37.208;2022-12-29T15:48:44;99039.92;;;-3.50;88.12
75549;BME280;64133;56.002;37.208;2022-12-29T15:59:02;99035.80;;;-3.28;88.06
75549;BME280;64133;56.002;37.208;2022-12-29T16:04:06;99031.02;;;-3.25;88.09
75549;BME280;64133;56.002;37.208;2022-12-29T16:09:15;99024.96;;;-3.24;88.12
75549;BME280;64133;56.002;37.208;2022-12-29T16:14:20;99022.23;;;-3.33;88.18
75549;BME280;64133;56.002;37.208;2022-12-29T16:19:24;99011.41;;;-3.44;88.01
75549;BME280;64133;56.002;37.208;2022-12-29T16:24:29;99019.58;;;-3.45;87.90
75549;BME280;64133;56.002;37.208;2022-12-29T16:29:31;99011.55;;;-3.49;87.90
75549;BME280;64133;56.002;37.208;2022-12-29T16:39:52;99002.55;;;-3.36;88.26
75549;BME280;64133;56.002;37.208;2022-12-29T16:44:55;99004.25;;;-3.48;88.19
75549;BME280;64133;56.002;37.208;2022-12-29T16:50:09;98998.38;;;-3.53;88.44
75549;BME280;64133;56.002;37.208;2022-12-29T16:55:06;98997.84;;;-3.49;88.70
75549;BME280;64133;56.002;37.208;2022-12-29T17:00:21;98989.95;;;-3.58;88.48
75549;BME280;64133;56.002;37.208;2022-12-29T17:05:25;98995.47;;;-3.56;88.52
75549;BME280;64133;56.002;37.208;2022-12-29T17:10:29;98991.02;;;-3.50;88.54
75549;BME280;64133;56.002;37.208;2022-12-29T17:15:53;98990.23;;;-3.52;88.62
75549;BME280;64133;56.002;37.208;2022-12-29T17:20:57;98993.59;;;-3.50;88.67
75549;BME280;64133;56.002;37.208;2022-12-29T17:26:01;98990.09;;;-3.48;88.57
75549;BME280;64133;56.002;37.208;2022-12-29T17:31:06;98989.58;;;-3.46;88.45
75549;BME280;64133;56.002;37.208;2022-12-29T17:36:11;98986.48;;;-3.57;88.43
75549;BME280;64133;56.002;37.208;2022-12-29T17:41:15;98984.58;;;-3.50;88.72
75549;BME280;64133;56.002;37.208;2022-12-29T17:46:19;98979.42;;;-3.50;88.67
75549;BME280;64133;56.002;37.208;2022-12-29T17:51:23;98982.06;;;-3.52;88.65
75549;BME280;64133;56.002;37.208;2022-12-29T17:56:27;98971.85;;;-3.55;88.65
75549;BME280;64133;56.002;37.208;2022-12-29T18:01:31;98961.47;;;-3.52;88.64
75549;BME280;64133;56.002;37.208;2022-12-29T18:06:36;98968.98;;;-3.46;88.82
75549;BME280;64133;56.002;37.208;2022-12-29T18:11:41;98964.67;;;-3.45;88.48
75549;BME280;64133;56.002;37.208;2022-12-29T18:16:46;98961.92;;;-3.52;88.76
75549;BME280;64133;56.002;37.208;2022-12-29T18:21:51;98965.41;;;-3.55;88.77
75549;BME280;64133;56.002;37.208;2022-12-29T18:26:55;98969.58;;;-3.51;88.83
75549;BME280;64133;56.002;37.208;2022-12-29T18:32:00;98963.45;;;-3.47;88.81
75549;BME280;64133;56.002;37.208;2022-12-29T18:37:05;98955.36;;;-3.49;88.88
75549;BME280;64133;56.002;37.208;2022-12-29T18:42:10;98953.18;;;-3.48;88.91
75549;BME280;64133;56.002;37.208;2022-12-29T18:47:15;98958.69;;;-3.46;89.13
75549;BME280;64133;56.002;37.208;2022-12-29T18:52:18;98951.56;;;-3.38;89.10
75549;BME280;64133;56.002;37.208;2022-12-29T18:57:23;98948.93;;;-3.36;89.09
75549;BME280;64133;56.002;37.208;2022-12-29T19:02:26;98947.31;;;-3.25;89.25
75549;BME280;64133;56.002;37.208;2022-12-29T19:07:31;98956.17;;;-3.21;89.30
75549;BME280;64133;56.002;37.208;2022-12-29T19:12:34;98949.58;;;-3.16;89.08
75549;BME280;64133;56.002;37.208;2022-12-29T19:17:39;98944.05;;;-3.17;89.35
75549;BME280;64133;56.002;37.208;2022-12-29T19:22:42;98942.39;;;-3.20;89.38
75549;BME280;64133;56.002;37.208;2022-12-29T19:27:46;98946.70;;;-3.20;89.51
75549;BME280;64133;56.002;37.208;2022-12-29T19:32:50;98944.72;;;-3.12;89.68
75549;BME280;64133;56.002;37.208;2022-12-29T19:37:55;98935.59;;;-3.09;89.45
75549;BME280;64133;56.002;37.208;2022-12-29T19:42:59;98928.27;;;-3.08;89.83
75549;BME280;64133;56.002;37.208;2022-12-29T19:48:04;98926.34;;;-3.15;89.95
75549;BME280;64133;56.002;37.208;2022-12-29T19:53:08;98926.02;;;-3.17;90.02
75549;BME280;64133;56.002;37.208;2022-12-29T19:58:13;98924.75;;;-3.19;90.51
75549;BME280;64133;56.002;37.208;2022-12-29T20:03:18;98931.25;;;-3.20;90.64
75549;BME280;64133;56.002;37.208;2022-12-29T20:08:22;98926.17;;;-3.22;90.77
75549;BME280;64133;56.002;37.208;2022-12-29T20:13:27;98927.63;;;-3.15;90.67
75549;BME280;64133;56.002;37.208;2022-12-29T20:18:32;98919.16;;;-3.18;90.84
75549;BME280;64133;56.002;37.208;2022-12-29T20:23:36;98925.56;;;-3.17;90.88
75549;BME280;64133;56.002;37.208;2022-12-29T20:28:40;98921.32;;;-3.06;91.20
75549;BME280;64133;56.002;37.208;2022-12-29T20:33:43;98926.09;;;-3.07;90.92
75549;BME280;64133;56.002;37.208;2022-12-29T20:38:48;98916.69;;;-3.08;91.28
75549;BME280;64133;56.002;37.208;2022-12-29T20:43:52;98917.70;;;-3.14;91.06
75549;BME280;64133;56.002;37.208;2022-12-29T20:48:56;98905.83;;;-3.18;91.32
75549;BME280;64133;56.002;37.208;2022-12-29T20:54:00;98901.13;;;-3.18;91.42
75549;BME280;64133;56.002;37.208;2022-12-29T20:59:05;98896.42;;;-3.19;91.19
75549;BME280;64133;56.002;37.208;2022-12-29T21:04:08;98883.70;;;-3.23;91.35
75549;BME280;64133;56.002;37.208;2022-12-29T21:09:13;98881.94;;;-3.21;91.56
75549;BME280;64133;56.002;37.208;2022-12-29T21:14:16;98873.79;;;-3.22;91.85
75549;BME280;64133;56.002;37.208;2022-12-29T21:19:21;98866.58;;;-3.24;91.86
75549;BME280;64133;56.002;37.208;2022-12-29T21:24:25;98861.42;;;-3.24;91.71
75549;BME280;64133;56.002;37.208;2022-12-29T21:29:30;98858.78;;;-3.23;91.78
75549;BME280;64133;56.002;37.208;2022-12-29T21:34:34;98853.54;;;-3.20;91.85
75549;BME280;64133;56.002;37.208;2022-12-29T21:39:38;98855.95;;;-3.15;92.03
75549;BME280;64133;56.002;37.208;2022-12-29T21:44:43;98845.20;;;-3.15;92.01
75549;BME280;64133;56.002;37.208;2022-12-29T21:50:06;98844.27;;;-3.12;92.21
75549;BME280;64133;56.002;37.208;2022-12-29T21:55:11;98835.13;;;-3.09;92.17
75549;BME280;64133;56.002;37.208;2022-12-29T22:00:16;98837.50;;;-3.03;91.98
75549;BME280;64133;56.002;37.208;2022-12-29T22:05:42;98840.30;;;-2.97;91.97
75549;BME280;64133;56.002;37.208;2022-12-29T22:11:07;98836.43;;;-2.97;91.70
75549;BME280;64133;56.002;37.208;2022-12-29T22:16:29;98838.81;;;-2.91;91.99
75549;BME280;64133;56.002;37.208;2022-12-29T22:21:33;98844.83;;;-2.92;91.67
75549;BME280;64133;56.002;37.208;2022-12-29T22:26:37;98842.83;;;-2.84;91.81
75549;BME280;64133;56.002;37.208;2022-12-29T22:31:42;98836.45;;;-2.86;91.82
75549;BME280;64133;56.002;37.208;2022-12-29T22:36:46;98824.12;;;-2.89;91.76
75549;BME280;64133;56.002;37.208;2022-12-29T22:41:51;98826.31;;;-2.90;91.83
75549;BME280;64133;56.002;37.208;2022-12-29T22:46:54;98830.62;;;-2.91;91.76
75549;BME280;64133;56.002;37.208;2022-12-29T22:51:59;98829.84;;;-2.81;91.88
75549;BME280;64133;56.002;37.208;2022-12-29T22:57:04;98832.48;;;-2.83;91.80
75549;BME280;64133;56.002;37.208;2022-12-29T23:02:07;98816.50;;;-2.81;91.69
75549;BME280;64133;56.002;37.208;2022-12-29T23:07:11;98810.45;;;-2.80;91.72
75549;BME280;64133;56.002;37.208;2022-12-29T23:12:16;98805.81;;;-2.82;91.90
75549;BME280;64133;56.002;37.208;2022-12-29T23:17:20;98802.50;;;-2.73;91.82
75549;BME280;64133;56.002;37.208;2022-12-29T23:22:24;98832.12;;;-2.62;92.03
75549;BME280;64133;56.002;37.208;2022-12-29T23:27:29;98834.91;;;-2.44;91.69
75549;BME280;64133;56.002;37.208;2022-12-29T23:32:32;98840.38;;;-2.52;91.60
75549;BME280;64133;56.002;37.208;2022-12-29T23:37:36;98830.23;;;-2.57;91.57
75549;BME280;64133;56.002;37.208;2022-12-29T23:42:41;98836.89;;;-2.63;91.31
75549;BME280;64133;56.002;37.208;2022-12-29T23:47:46;98834.42;;;-2.66;91.38
75549;BME280;64133;56.002;37.208;2022-12-29T23:52:50;98823.27;;;-2.66;91.65
75549;BME280;64133;56.002;37.208;2022-12-29T23:57:55;98825.98;;;-2.69;91.77
